Time;durP1;ratioP1;P1;durP2;ratioP2;P2;SDS_P1;SDS_P2;PMS_P1;PMS_P2;Temp;Humidity;BMP_temperature;BMP_pressure;BME280_temperature;BME280_humidity;BME280_pressure;Samples;Min_cycle;Max_cycle;Signal;HPM_P1;HPM_P2
2022/05/27 00:02:11;;;;;;;3.28;2.20;;;21.80;55.90;;;;;;4896289;29;20119;-71
2022/05/27 00:04:37;;;;;;;4.75;2.42;;;21.80;55.80;;;;;;4895291;29;20035;-72
2022/05/27 00:07:03;;;;;;;4.43;2.20;;;21.80;55.80;;;;;;4896679;29;20088;-71
2022/05/27 00:09:29;;;;;;;4.00;2.45;;;21.80;55.80;;;;;;4895112;29;20083;-72
2022/05/27 00:11:55;;;;;;;3.65;2.10;;;21.80;55.70;;;;;;4895140;29;20037;-72
2022/05/27 00:14:21;;;;;;;2.95;2.20;;;21.80;55.70;;;;;;4895250;29;20031;-72
2022/05/27 00:16:47;;;;;;;3.30;2.13;;;21.80;55.80;;;;;;4896244;29;20031;-71
2022/05/27 00:19:13;;;;;;;3.47;2.10;;;21.80;55.80;;;;;;4895982;29;20029;-72
2022/05/27 00:21:39;;;;;;;3.88;2.47;;;21.80;55.80;;;;;;4894788;29;20040;-72
2022/05/27 00:24:05;;;;;;;4.07;2.20;;;21.80;55.80;;;;;;4896173;29;20044;-72
2022/05/27 00:26:31;;;;;;;3.80;2.30;;;21.80;55.80;;;;;;4895238;29;20096;-72
2022/05/27 00:28:57;;;;;;;3.40;2.22;;;21.80;55.90;;;;;;4894621;29;20033;-72
2022/05/27 00:31:23;;;;;;;3.88;2.35;;;21.80;55.90;;;;;;4895169;29;20044;-72
2022/05/27 00:33:49;;;;;;;2.63;1.80;;;21.80;55.90;;;;;;4896065;29;20529;-71
2022/05/27 00:36:15;;;;;;;3.15;2.22;;;21.80;55.90;;;;;;4895111;29;20385;-72
2022/05/27 00:38:42;;;;;;;3.95;2.45;;;21.80;55.90;;;;;;4878964;29;20028;-71
2022/05/27 00:41:12;;;;;;;3.17;2.17;;;21.80;55.90;;;;;;4896105;29;20058;-72
2022/05/27 00:43:40;;;;;;;4.10;2.33;;;21.80;56.00;;;;;;4895976;29;20033;-71
2022/05/27 00:46:21;;;;;;;5.90;2.28;;;21.80;55.90;;;;;;4896177;29;20028;-71
2022/05/27 00:48:50;;;;;;;3.83;2.30;;;21.80;56.00;;;;;;4894375;29;20482;-72
2022/05/27 00:51:22;;;;;;;4.45;2.08;;;21.80;56.00;;;;;;4895112;29;20033;-72
2022/05/27 00:53:57;;;;;;;4.47;2.10;;;21.70;56.00;;;;;;4894761;29;20033;-72
2022/05/27 00:56:28;;;;;;;4.65;2.38;;;21.80;55.90;;;;;;4895594;29;20028;-72
2022/05/27 00:58:59;;;;;;;3.13;2.25;;;21.80;56.10;;;;;;4899410;29;20056;-71
2022/05/27 01:01:27;;;;;;;2.70;1.80;;;21.70;56.00;;;;;;4899945;29;20406;-72
2022/05/27 01:03:55;;;;;;;3.80;2.15;;;21.70;56.00;;;;;;4898690;29;20032;-72
2022/05/27 01:06:21;;;;;;;3.05;2.20;;;21.80;56.00;;;;;;4899654;29;20064;-72
2022/05/27 01:08:46;;;;;;;3.08;2.03;;;21.80;55.90;;;;;;4899219;29;20060;-71
2022/05/27 01:11:37;;;;;;;2.92;1.88;;;21.80;55.90;;;;;;4898562;29;20060;-71
2022/05/27 01:14:37;;;;;;;3.30;2.22;;;21.80;55.90;;;;;;4898225;29;20035;-71
2022/05/27 01:17:36;;;;;;;5.45;2.45;;;21.70;55.90;;;;;;4899669;29;20135;-72
2022/05/27 01:20:23;;;;;;;2.90;2.22;;;21.80;55.90;;;;;;4899893;29;20032;-71
2022/05/27 01:23:36;;;;;;;3.22;2.05;;;21.80;55.90;;;;;;4882636;29;20076;-71
2022/05/27 01:26:33;;;;;;;3.00;2.20;;;21.80;56.00;;;;;;4886721;29;20044;-72
2022/05/27 01:29:32;;;;;;;3.55;2.15;;;21.80;56.60;;;;;;4897753;29;20032;-71
2022/05/27 01:32:22;;;;;;;3.25;2.10;;;21.80;56.00;;;;;;4899295;29;20057;-71
2022/05/27 01:34:56;;;;;;;3.50;2.10;;;21.70;56.00;;;;;;4891818;29;20047;-72
2022/05/27 01:38:00;;;;;;;3.83;2.13;;;21.70;56.00;;;;;;4898980;29;20083;-72
2022/05/27 01:40:50;;;;;;;2.70;2.10;;;21.80;56.00;;;;;;4897444;29;20168;-71
2022/05/27 01:43:41;;;;;;;4.95;2.50;;;21.70;56.10;;;;;;4898841;29;20230;-72
2022/05/27 01:46:20;;;;;;;3.63;2.20;;;21.80;56.10;;;;;;4899073;29;20386;-72
2022/05/27 01:49:18;;;;;;;2.90;1.92;;;21.70;56.10;;;;;;4898568;29;20031;-71
2022/05/27 01:52:06;;;;;;;4.25;2.30;;;21.80;56.10;;;;;;4899142;29;20032;-72
2022/05/27 01:54:47;;;;;;;3.75;2.22;;;21.70;56.10;;;;;;4897677;29;20041;-72
2022/05/27 01:57:18;;;;;;;2.72;2.05;;;21.70;56.10;;;;;;4898628;29;20107;-72
2022/05/27 02:00:16;;;;;;;4.47;2.28;;;21.70;56.70;;;;;;4898791;29;20116;-72
2022/05/27 02:03:03;;;;;;;3.17;2.22;;;21.70;56.20;;;;;;4898862;29;20406;-72
2022/05/27 02:06:01;;;;;;;3.22;2.10;;;21.70;56.10;;;;;;4898494;29;20401;-71
2022/05/27 02:08:34;;;;;;;4.30;2.55;;;21.70;56.00;;;;;;4888098;29;20513;-71
2022/05/27 02:11:04;;;;;;;3.55;2.40;;;21.80;56.00;;;;;;4898542;29;20028;-71
2022/05/27 02:13:57;;;;;;;4.10;2.15;;;21.70;56.00;;;;;;4898629;29;20114;-71
2022/05/27 02:16:41;;;;;;;2.90;2.03;;;21.80;56.10;;;;;;4897322;29;20041;-71
2022/05/27 02:19:15;;;;;;;3.28;1.98;;;21.80;55.90;;;;;;4898302;29;20390;-71
2022/05/27 02:22:09;;;;;;;3.72;2.30;;;21.70;56.00;;;;;;4898255;29;20075;-71
2022/05/27 02:25:01;;;;;;;3.78;2.33;;;21.80;56.10;;;;;;4897968;29;20100;-72
2022/05/27 02:27:46;;;;;;;3.40;2.30;;;21.70;56.10;;;;;;4896917;29;20116;-72
2022/05/27 02:30:16;;;;;;;2.40;1.98;;;21.70;56.00;;;;;;4897105;29;20442;-71
2022/05/27 02:35:07;;;;;;;4.07;2.25;;;21.70;56.10;;;;;;4898393;29;20088;-72
2022/05/27 02:35:41;;;;;;;3.97;1.88;;;21.70;56.10;;;;;;4898007;29;20346;-72
2022/05/27 02:38:07;;;;;;;3.00;2.28;;;21.70;56.00;;;;;;4897724;29;20043;-72
2022/05/27 02:40:42;;;;;;;2.78;2.20;;;21.70;56.00;;;;;;4898445;29;20382;-72
2022/05/27 02:43:26;;;;;;;2.92;2.15;;;21.70;56.10;;;;;;4881064;29;20060;-72
2022/05/27 02:46:21;;;;;;;3.95;2.25;;;21.70;56.20;;;;;;4897944;29;20037;-73
2022/05/27 02:49:14;;;;;;;3.78;2.05;;;21.70;56.10;;;;;;4896257;29;20039;-72
2022/05/27 02:52:07;;;;;;;3.33;2.08;;;21.70;56.10;;;;;;4898115;29;20355;-72
2022/05/27 02:54:50;;;;;;;4.50;2.20;;;21.70;56.10;;;;;;4896855;29;20044;-72
2022/05/27 02:57:37;;;;;;;4.50;2.50;;;21.70;56.10;;;;;;4880864;29;20409;-72
2022/05/27 03:00:21;;;;;;;3.97;2.30;;;21.70;56.10;;;;;;4897740;29;20084;-72
2022/05/27 03:02:47;;;;;;;3.13;2.30;;;21.70;56.20;;;;;;4897550;29;20044;-72
2022/05/27 03:05:15;;;;;;;2.97;2.00;;;21.70;56.10;;;;;;4897465;29;20040;-72
2022/05/27 03:07:57;;;;;;;2.92;1.98;;;21.70;56.10;;;;;;4897147;29;20458;-72
2022/05/27 03:10:49;;;;;;;3.28;2.30;;;21.70;56.20;;;;;;4897451;29;20028;-72
2022/05/27 03:13:29;;;;;;;2.75;1.90;;;21.70;56.10;;;;;;4896380;29;20084;-72
2022/05/27 03:16:04;;;;;;;2.92;2.00;;;21.70;56.10;;;;;;4897567;29;20033;-72
2022/05/27 03:19:16;;;;;;;2.58;1.90;;;21.70;56.10;;;;;;4897060;29;20028;-72
2022/05/27 03:22:04;;;;;;;3.42;2.30;;;21.70;56.10;;;;;;4897244;29;20043;-72
2022/05/27 03:24:43;;;;;;;3.78;2.10;;;21.80;56.10;;;;;;4897511;29;20032;-72
2022/05/27 03:27:38;;;;;;;2.53;1.70;;;21.70;56.10;;;;;;4897375;29;20494;-72
2022/05/27 03:30:07;;;;;;;2.55;1.95;;;21.70;56.10;;;;;;4895986;29;20370;-72
2022/05/27 03:33:00;;;;;;;3.50;2.30;;;21.70;56.10;;;;;;4897050;29;20107;-72
2022/05/27 03:35:41;;;;;;;2.58;1.80;;;21.70;56.10;;;;;;4897047;29;20028;-72
2022/05/27 03:38:20;;;;;;;3.20;2.35;;;21.70;56.20;;;;;;4896765;29;20060;-72
2022/05/27 03:40:52;;;;;;;2.88;2.00;;;21.70;56.10;;;;;;4896913;29;20040;-72
2022/05/27 03:43:18;;;;;;;4.18;2.42;;;21.70;56.20;;;;;;4896994;29;20379;-72
2022/05/27 03:45:57;;;;;;;2.65;2.28;;;21.70;56.10;;;;;;4896848;29;20059;-72
2022/05/27 03:48:25;;;;;;;2.88;2.05;;;21.70;56.20;;;;;;4895640;29;20088;-72
2022/05/27 03:50:54;;;;;;;3.17;2.42;;;21.70;56.10;;;;;;4896653;29;20091;-72
2022/05/27 03:53:20;;;;;;;6.03;2.65;;;21.70;56.10;;;;;;4880026;29;20028;-72
2022/05/27 03:55:45;;;;;;;3.60;2.40;;;21.70;56.20;;;;;;4896197;29;20033;-72
2022/05/27 03:58:13;;;;;;;3.47;2.40;;;21.70;56.20;;;;;;4896400;29;20497;-72
2022/05/27 04:00:41;;;;;;;4.32;2.47;;;21.70;56.20;;;;;;4879850;29;20115;-72
2022/05/27 04:03:11;;;;;;;4.20;2.30;;;21.70;56.20;;;;;;4896747;29;20033;-72
2022/05/27 04:05:38;;;;;;;3.45;2.20;;;21.70;56.20;;;;;;4895208;29;20028;-72
2022/05/27 04:08:05;;;;;;;3.60;2.33;;;21.70;56.20;;;;;;4895059;29;20041;-72
2022/05/27 04:10:31;;;;;;;4.70;2.33;;;21.70;56.20;;;;;;4879719;29;20028;-72
2022/05/27 04:12:57;;;;;;;4.35;2.40;;;21.70;56.20;;;;;;4879627;29;20516;-71
2022/05/27 04:15:23;;;;;;;3.25;2.10;;;21.70;56.10;;;;;;4895200;29;20056;-72
2022/05/27 04:17:48;;;;;;;3.08;2.15;;;21.70;56.20;;;;;;4896041;29;20112;-72
2022/05/27 04:20:16;;;;;;;3.63;2.00;;;21.70;56.10;;;;;;4896309;29;20036;-72
2022/05/27 04:22:43;;;;;;;5.35;2.42;;;21.70;56.10;;;;;;4896363;29;20111;-72
2022/05/27 04:25:09;;;;;;;4.07;2.30;;;21.70;56.10;;;;;;4896174;29;20092;-72
2022/05/27 04:27:36;;;;;;;4.20;2.30;;;21.70;56.20;;;;;;4895829;29;20153;-72
2022/05/27 04:30:04;;;;;;;3.10;2.28;;;21.70;56.10;;;;;;4896288;29;20036;-72
2022/05/27 04:32:30;;;;;;;3.10;2.30;;;21.70;56.10;;;;;;4895379;29;20076;-72
2022/05/27 04:34:55;;;;;;;3.28;2.28;;;21.70;56.20;;;;;;4896141;29;20073;-72
2022/05/27 04:37:23;;;;;;;4.28;2.45;;;21.70;56.20;;;;;;4895811;29;20029;-72
2022/05/27 04:39:49;;;;;;;2.67;2.08;;;21.70;56.10;;;;;;4896211;29;20115;-72
2022/05/27 04:42:15;;;;;;;4.60;2.38;;;21.70;56.20;;;;;;4895918;29;20065;-72
2022/05/27 04:44:40;;;;;;;4.60;2.50;;;21.70;56.10;;;;;;4896151;29;20032;-73
2022/05/27 04:47:07;;;;;;;2.88;2.08;;;21.70;56.20;;;;;;4895958;29;20056;-73
2022/05/27 04:49:53;;;;;;;3.50;2.35;;;21.70;56.20;;;;;;4895990;29;20040;-72
2022/05/27 04:52:21;;;;;;;3.67;2.28;;;21.70;56.20;;;;;;4895853;29;20029;-72
2022/05/27 04:54:48;;;;;;;3.72;2.50;;;21.70;56.20;;;;;;4895936;29;20037;-72
2022/05/27 04:57:21;;;;;;;3.60;2.60;;;21.70;56.20;;;;;;4895881;29;20025;-72
2022/05/27 04:59:49;;;;;;;3.22;2.65;;;21.70;56.20;;;;;;4894779;29;20595;-72
2022/05/27 05:02:20;;;;;;;3.35;2.20;;;21.70;56.20;;;;;;4895766;29;20134;-72
2022/05/27 05:04:47;;;;;;;4.72;2.83;;;21.70;56.30;;;;;;4895779;29;20031;-72
2022/05/27 05:07:13;;;;;;;4.05;2.33;;;21.60;56.20;;;;;;4879123;29;20085;-72
2022/05/27 05:09:41;;;;;;;3.38;2.28;;;21.70;56.20;;;;;;4894453;29;20064;-71
2022/05/27 05:12:09;;;;;;;4.82;2.60;;;21.70;56.30;;;;;;4895859;29;20032;-72
2022/05/27 05:14:35;;;;;;;3.63;2.35;;;21.60;56.10;;;;;;4894788;29;20033;-72
2022/05/27 05:17:01;;;;;;;4.22;2.58;;;21.70;56.10;;;;;;4894630;29;20557;-72
2022/05/27 05:19:26;;;;;;;4.28;2.55;;;21.70;56.10;;;;;;4894600;29;20025;-72
2022/05/27 05:21:53;;;;;;;3.28;2.38;;;21.70;56.10;;;;;;4903558;23;20524;-76
2022/05/27 05:24:19;;;;;;;3.63;2.55;;;21.70;56.20;;;;;;4874645;29;20021;-76
2022/05/27 05:26:45;;;;;;;3.78;2.50;;;21.70;56.10;;;;;;4875474;29;20033;-75
2022/05/27 05:29:11;;;;;;;3.03;1.88;;;21.70;56.10;;;;;;4876338;29;20406;-76
2022/05/27 05:31:36;;;;;;;3.85;2.40;;;21.70;56.10;;;;;;4891159;29;20029;-76
2022/05/27 05:34:02;;;;;;;3.33;2.20;;;21.70;56.10;;;;;;4875636;29;20029;-76
2022/05/27 05:36:30;;;;;;;4.10;2.50;;;21.70;56.10;;;;;;4876024;29;20025;-76
2022/05/27 05:38:56;;;;;;;3.33;2.40;;;21.70;56.10;;;;;;4876796;29;20096;-76
2022/05/27 05:41:37;;;;;;;4.95;2.70;;;21.60;56.10;;;;;;4876464;29;20402;-76
2022/05/27 05:44:05;;;;;;;4.30;2.47;;;21.70;56.20;;;;;;4878847;29;20029;-76
2022/05/27 05:46:32;;;;;;;3.70;2.38;;;21.60;56.10;;;;;;4879105;29;20044;-76
2022/05/27 05:48:58;;;;;;;4.75;2.30;;;21.60;56.10;;;;;;4878601;29;20033;-76
2022/05/27 05:51:24;;;;;;;3.92;2.42;;;21.60;56.20;;;;;;4879931;29;20549;-76
2022/05/27 05:53:50;;;;;;;4.22;2.70;;;21.70;56.20;;;;;;4880521;29;20029;-76
2022/05/27 05:56:15;;;;;;;3.72;2.55;;;21.60;56.20;;;;;;4878801;29;20507;-76
2022/05/27 05:58:41;;;;;;;4.47;2.80;;;21.60;56.20;;;;;;4878662;29;20029;-76
2022/05/27 06:01:07;;;;;;;4.28;2.65;;;21.60;56.10;;;;;;4880131;29;20032;-76
2022/05/27 06:03:33;;;;;;;4.50;2.50;;;21.60;56.10;;;;;;4879853;29;20044;-76
2022/05/27 06:05:58;;;;;;;5.60;3.10;;;21.70;56.20;;;;;;4879927;29;20033;-76
2022/05/27 06:08:24;;;;;;;3.53;2.42;;;21.60;56.10;;;;;;4879713;29;20084;-76
2022/05/27 06:10:50;;;;;;;5.28;2.75;;;21.70;56.20;;;;;;4879954;29;20049;-75
2022/05/27 06:13:15;;;;;;;4.78;2.85;;;21.70;56.20;;;;;;4878561;29;20033;-76
2022/05/27 06:15:41;;;;;;;3.92;2.53;;;21.60;56.20;;;;;;4879935;29;20033;-75
2022/05/27 06:18:07;;;;;;;5.78;2.42;;;21.60;56.10;;;;;;4878295;29;20128;-76
2022/05/27 06:20:35;;;;;;;3.40;2.33;;;21.60;56.10;;;;;;4878509;29;20387;-75
2022/05/27 06:23:06;;;;;;;4.95;2.40;;;21.60;56.20;;;;;;4878337;29;20084;-76
2022/05/27 06:25:32;;;;;;;3.80;2.40;;;21.60;56.10;;;;;;4879664;29;20112;-76
2022/05/27 06:36:16;;;;;;;5.30;2.72;;;21.70;56.10;;;;;;4879509;29;20036;-76
2022/05/27 06:38:42;;;;;;;3.88;2.50;;;21.70;56.10;;;;;;4878122;29;20033;-76
2022/05/27 06:41:08;;;;;;;4.28;2.22;;;21.70;56.10;;;;;;4879256;29;20081;-76
2022/05/27 06:43:34;;;;;;;3.72;2.35;;;21.60;56.10;;;;;;4879563;29;20025;-76
2022/05/27 06:46:00;;;;;;;3.70;2.40;;;21.70;56.00;;;;;;4879281;29;20061;-76
2022/05/27 06:48:27;;;;;;;4.65;2.88;;;21.70;55.90;;;;;;4878779;29;20060;-75
2022/05/27 06:50:53;;;;;;;4.38;2.85;;;21.70;56.00;;;;;;4879740;29;20378;-75
2022/05/27 06:53:19;;;;;;;5.10;2.85;;;21.70;55.90;;;;;;4879190;29;20021;-75
2022/05/27 06:55:49;;;;;;;4.38;2.75;;;21.70;55.90;;;;;;4877519;29;20033;-75
2022/05/27 06:58:15;;;;;;;3.22;2.60;;;21.70;56.00;;;;;;4877629;29;20047;-75
2022/05/27 07:00:41;;;;;;;4.25;2.58;;;21.70;56.00;;;;;;4879222;29;20111;-75
2022/05/27 07:03:07;;;;;;;3.72;2.38;;;21.70;55.90;;;;;;4862281;29;20380;-74
2022/05/27 07:05:33;;;;;;;4.35;2.38;;;21.70;56.00;;;;;;4878981;29;20088;-75
2022/05/27 07:08:01;;;;;;;4.00;2.60;;;21.70;56.00;;;;;;4877200;29;20037;-74
2022/05/27 07:10:27;;;;;;;4.00;2.63;;;21.70;55.90;;;;;;4878925;29;20074;-76
2022/05/27 07:12:59;;;;;;;4.00;2.47;;;21.70;55.80;;;;;;4862165;29;20510;-75
2022/05/27 07:15:31;;;;;;;3.28;2.33;;;21.70;55.90;;;;;;4878846;29;20549;-75
2022/05/27 07:17:57;;;;;;;4.53;2.90;;;21.70;55.80;;;;;;4878446;29;20033;-75
2022/05/27 07:20:23;;;;;;;3.85;2.50;;;21.70;56.00;;;;;;4878800;29;20522;-75
2022/05/27 07:22:49;;;;;;;3.47;2.53;;;21.70;55.90;;;;;;4878536;29;20033;-75
2022/05/27 07:25:16;;;;;;;4.53;2.70;;;21.70;55.80;;;;;;4877477;29;20037;-75
2022/05/27 07:27:44;;;;;;;4.57;2.60;;;21.70;55.70;;;;;;4878268;29;20033;-76
2022/05/27 07:30:10;;;;;;;3.92;2.20;;;21.70;55.70;;;;;;4878143;29;20032;-75
2022/05/27 07:32:37;;;;;;;3.45;2.20;;;21.70;55.80;;;;;;4877274;29;20039;-76
2022/05/27 07:35:08;;;;;;;5.63;2.70;;;21.70;55.70;;;;;;4877354;29;20375;-75
2022/05/27 07:37:34;;;;;;;4.78;2.67;;;21.80;55.80;;;;;;4878029;29;20410;-75
2022/05/27 07:40:00;;;;;;;4.00;2.53;;;21.70;55.70;;;;;;4877292;29;20033;-75
2022/05/27 07:42:26;;;;;;;3.38;2.47;;;21.70;55.70;;;;;;4878135;29;20028;-75
2022/05/27 07:44:54;;;;;;;4.25;2.47;;;21.70;55.70;;;;;;4878489;29;20486;-75
2022/05/27 07:47:20;;;;;;;4.63;2.50;;;21.80;56.50;;;;;;4876714;29;20044;-75
2022/05/27 07:49:48;;;;;;;3.55;2.40;;;21.70;55.70;;;;;;4877989;29;20048;-75
2022/05/27 07:52:14;;;;;;;3.97;2.45;;;21.70;55.60;;;;;;4878214;29;20029;-74
2022/05/27 07:54:39;;;;;;;3.65;2.58;;;21.70;55.70;;;;;;4878035;29;20077;-75
2022/05/27 07:57:23;;;;;;;4.00;2.58;;;21.70;55.70;;;;;;4878071;29;20037;-75
2022/05/27 08:00:06;;;;;;;4.72;2.60;;;21.70;55.70;;;;;;4877160;29;20367;-74
2022/05/27 08:02:38;;;;;;;3.72;2.38;;;21.70;55.70;;;;;;4877824;29;20454;-75
2022/05/27 08:05:04;;;;;;;3.58;2.50;;;21.70;55.60;;;;;;4876813;29;20056;-75
2022/05/27 08:07:29;;;;;;;5.10;2.75;;;21.70;55.70;;;;;;4877692;29;20419;-75
2022/05/27 08:09:55;;;;;;;3.83;2.47;;;21.70;55.70;;;;;;4877954;29;20037;-75
2022/05/27 08:12:21;;;;;;;4.18;2.72;;;21.70;55.70;;;;;;4877712;29;20025;-75
2022/05/27 08:14:48;;;;;;;4.68;2.72;;;21.70;55.80;;;;;;4876530;29;20029;-74
2022/05/27 08:17:14;;;;;;;3.97;2.40;;;21.70;55.60;;;;;;4877587;29;20057;-75
2022/05/27 08:19:39;;;;;;;5.53;2.90;;;21.70;55.60;;;;;;4876440;29;20071;-75
2022/05/27 08:22:05;;;;;;;4.07;2.60;;;21.70;55.50;;;;;;4877547;29;20052;-75
2022/05/27 08:24:31;;;;;;;3.25;2.47;;;21.70;55.50;;;;;;4877611;29;20041;-74
2022/05/27 08:26:56;;;;;;;4.53;2.70;;;21.80;55.50;;;;;;4877626;29;20033;-75
2022/05/27 08:29:22;;;;;;;4.43;2.65;;;21.70;55.30;;;;;;4876032;29;20041;-75
2022/05/27 08:31:48;;;;;;;6.13;2.60;;;21.80;55.30;;;;;;4877652;29;20059;-75
2022/05/27 08:39:47;;;;;;;5.05;2.67;;;21.80;55.10;;;;;;4876234;29;20409;-75
2022/05/27 08:42:30;;;;;;;4.57;2.58;;;21.80;55.10;;;;;;4876116;29;20081;-75
2022/05/27 08:45:08;;;;;;;4.07;2.35;;;21.80;55.10;;;;;;4876211;29;20041;-74
2022/05/27 08:47:44;;;;;;;2.80;2.17;;;21.80;55.10;;;;;;4877050;29;20029;-75
2022/05/27 08:50:18;;;;;;;4.85;2.75;;;21.80;55.10;;;;;;4877476;29;20029;-74
2022/05/27 08:52:47;;;;;;;4.55;2.50;;;21.70;55.10;;;;;;4877411;29;20518;-74
2022/05/27 09:01:34;;;;;;;3.50;2.45;;;21.70;55.20;;;;;;4877266;29;20048;-75
2022/05/27 09:04:16;;;;;;;3.80;2.47;;;21.70;55.10;;;;;;4876180;29;20029;-75
2022/05/27 09:06:51;;;;;;;4.68;2.55;;;21.70;55.00;;;;;;4877455;29;20044;-74
2022/05/27 09:09:21;;;;;;;5.00;2.55;;;21.80;55.00;;;;;;4877042;29;20667;-75
2022/05/27 09:12:06;;;;;;;3.60;2.45;;;21.80;55.00;;;;;;4877350;29;20036;-75
2022/05/27 09:14:33;;;;;;;4.95;2.70;;;21.70;54.90;;;;;;4876415;29;20033;-74
2022/05/27 09:17:05;;;;;;;4.57;2.47;;;21.70;54.80;;;;;;4876232;29;20077;-75
2022/05/27 09:19:43;;;;;;;4.50;2.42;;;21.70;54.90;;;;;;4879366;29;20127;-75
2022/05/27 09:22:28;;;;;;;4.68;2.70;;;21.80;54.90;;;;;;4880249;29;20263;-75
2022/05/27 09:25:25;;;;;;;5.43;2.50;;;21.70;54.80;;;;;;4880824;29;20033;-74
2022/05/27 09:28:17;;;;;;;5.53;2.85;;;21.70;54.90;;;;;;4879326;29;20313;-75
2022/05/27 09:30:45;;;;;;;4.97;2.65;;;21.70;54.90;;;;;;4865713;29;20128;-76
2022/05/27 09:33:13;;;;;;;3.63;2.35;;;21.70;54.90;;;;;;4879230;29;20029;-75
2022/05/27 09:35:48;;;;;;;4.97;2.63;;;21.70;54.90;;;;;;4879414;29;20033;-75
2022/05/27 09:38:23;;;;;;;5.47;2.63;;;21.80;54.90;;;;;;4879129;29;20044;-75
2022/05/27 09:40:54;;;;;;;4.78;2.47;;;21.80;54.80;;;;;;4878887;29;20482;-77
2022/05/27 09:43:44;;;;;;;4.22;2.50;;;21.80;55.00;;;;;;4878831;29;20029;-75
2022/05/27 09:46:13;;;;;;;5.65;2.67;;;21.80;54.80;;;;;;4879291;29;20077;-76
2022/05/27 09:48:39;;;;;;;4.72;2.67;;;21.80;54.80;;;;;;4878848;29;20036;-75
2022/05/27 09:51:07;;;;;;;4.38;2.47;;;21.80;55.30;;;;;;4880192;29;20430;-76
2022/05/27 09:53:40;;;;;;;3.90;2.45;;;21.80;54.80;;;;;;4880197;29;20088;-75
2022/05/27 09:56:11;;;;;;;5.32;2.70;;;21.80;54.80;;;;;;4863402;29;20489;-75
2022/05/27 09:58:40;;;;;;;4.78;2.60;;;21.80;54.80;;;;;;4879828;29;20041;-74
2022/05/27 10:01:22;;;;;;;5.20;2.63;;;21.80;54.70;;;;;;4863325;29;20417;-75
2022/05/27 10:03:58;;;;;;;3.92;2.53;;;21.80;54.70;;;;;;4879909;29;20033;-75
2022/05/27 10:06:27;;;;;;;4.78;2.47;;;21.80;54.60;;;;;;4880006;29;20107;-74
2022/05/27 10:08:55;;;;;;;3.65;2.55;;;21.80;54.60;;;;;;4878211;29;20040;-75
2022/05/27 10:11:29;;;;;;;5.18;2.70;;;21.70;54.60;;;;;;4878875;29;20028;-75
2022/05/27 10:14:17;;;;;;;5.13;2.55;;;21.80;54.70;;;;;;4879983;29;20037;-74
2022/05/27 10:17:05;;;;;;;5.38;2.60;;;21.70;54.60;;;;;;4879968;29;20029;-73
2022/05/27 10:19:31;;;;;;;5.75;3.03;;;21.80;54.60;;;;;;4878367;29;20445;-76
2022/05/27 10:22:00;;;;;;;3.95;2.42;;;21.70;54.50;;;;;;4879539;29;20120;-75
2022/05/27 10:24:43;;;;;;;3.67;2.50;;;21.80;54.80;;;;;;4863007;29;20037;-75
2022/05/27 10:27:20;;;;;;;5.10;2.80;;;21.80;54.70;;;;;;4878466;29;20065;-75
2022/05/27 10:30:08;;;;;;;4.43;2.45;;;21.70;54.60;;;;;;4878411;29;20561;-75
2022/05/27 10:32:40;;;;;;;5.88;2.75;;;21.70;54.60;;;;;;4878384;29;20037;-75
2022/05/27 10:35:16;;;;;;;5.82;2.58;;;21.70;54.60;;;;;;4878557;29;20033;-75
2022/05/27 10:38:00;;;;;;;4.05;2.13;;;21.70;54.50;;;;;;4862698;29;20039;-75
2022/05/27 10:40:36;;;;;;;5.00;2.50;;;21.70;54.60;;;;;;4879830;29;20033;-75
2022/05/27 10:43:39;;;;;;;4.20;2.33;;;21.70;54.60;;;;;;4879256;29;20029;-76
2022/05/27 10:46:07;;;;;;;4.70;2.58;;;21.80;54.60;;;;;;4879685;29;20060;-76
2022/05/27 10:48:56;;;;;;;3.85;2.42;;;21.80;54.60;;;;;;4878886;29;20116;-76
2022/05/27 10:51:36;;;;;;;5.13;2.65;;;21.80;54.60;;;;;;4879251;29;20457;-76
2022/05/27 10:54:24;;;;;;;5.18;2.75;;;21.80;54.60;;;;;;4879245;29;20029;-76
2022/05/27 11:03:52;;;;;;;4.57;2.55;;;21.80;54.60;;;;;;4839909;29;20396;-74
2022/05/27 11:06:35;;;;;;;5.38;2.40;;;21.80;54.60;;;;;;4824453;29;20034;-75
2022/05/27 11:09:04;;;;;;;3.67;2.33;;;21.70;54.60;;;;;;4871272;29;20088;-75
2022/05/27 11:11:53;;;;;;;5.28;2.58;;;21.70;54.60;;;;;;4877591;29;20446;-75
2022/05/27 11:17:29;;;;;;;5.05;2.63;;;21.70;54.60;;;;;;4878505;29;20040;-75
2022/05/27 11:20:39;;;;;;;4.05;2.42;;;21.80;54.70;;;;;;4878824;29;20028;-75
2022/05/27 11:23:59;;;;;;;4.38;2.53;;;21.70;54.70;;;;;;4889279;23;20052;-73
2022/05/27 11:26:40;;;;;;;3.88;2.20;;;21.70;54.70;;;;;;4857757;29;20145;-73
2022/05/27 11:29:34;;;;;;;3.97;2.30;;;21.70;54.70;;;;;;4892740;29;20048;-70
2022/05/27 11:32:22;;;;;;;5.05;2.55;;;21.70;54.70;;;;;;4895937;29;20032;-71
2022/05/27 11:35:16;;;;;;;4.20;2.58;;;21.70;54.70;;;;;;4897180;29;20039;-71
2022/05/27 11:38:19;;;;;;;3.67;2.42;;;21.70;54.60;;;;;;4896825;29;20038;-72
2022/05/27 11:41:02;;;;;;;4.63;2.10;;;21.80;54.70;;;;;;4896791;29;20041;-71
2022/05/27 11:43:44;;;;;;;4.70;2.33;;;21.70;54.60;;;;;;4896964;29;20495;-71
2022/05/27 11:46:38;;;;;;;4.05;2.30;;;21.80;54.70;;;;;;4897257;29;20048;-71
2022/05/27 11:49:35;;;;;;;4.35;2.58;;;21.70;54.70;;;;;;4895354;29;20037;-71
2022/05/27 11:52:25;;;;;;;3.58;2.10;;;21.70;54.70;;;;;;4897044;29;20056;-71
2022/05/27 11:55:20;;;;;;;4.45;2.45;;;21.70;54.70;;;;;;4896637;29;20504;-71
2022/05/27 11:58:19;;;;;;;4.05;2.42;;;21.70;54.70;;;;;;4896485;29;20443;-71
2022/05/27 12:00:54;;;;;;;4.93;2.50;;;21.70;54.80;;;;;;4896618;29;20060;-71
2022/05/27 12:03:40;;;;;;;4.68;2.55;;;21.70;54.80;;;;;;4896526;29;20075;-71
2022/05/27 12:06:15;;;;;;;4.85;2.60;;;21.70;54.80;;;;;;4896837;29;20484;-71
2022/05/27 12:09:09;;;;;;;6.53;2.63;;;21.70;54.80;;;;;;4879568;29;20032;-71
2022/05/27 12:11:40;;;;;;;4.57;2.60;;;21.70;54.90;;;;;;4896389;29;20029;-71
2022/05/27 12:14:14;;;;;;;3.72;2.42;;;21.70;54.90;;;;;;4896612;29;20025;-71
2022/05/27 12:16:43;;;;;;;4.47;2.38;;;21.70;54.90;;;;;;4895624;29;20025;-71
2022/05/27 12:19:14;;;;;;;4.40;2.42;;;21.70;54.80;;;;;;4896322;29;20029;-71
2022/05/27 12:21:45;;;;;;;4.40;2.20;;;21.70;54.80;;;;;;4896870;29;20028;-72
2022/05/27 12:24:29;;;;;;;4.80;2.40;;;21.70;54.90;;;;;;4896357;29;20036;-71
2022/05/27 12:26:57;;;;;;;4.97;2.58;;;21.70;54.80;;;;;;4896498;29;20040;-71
2022/05/27 12:29:26;;;;;;;5.45;2.50;;;21.70;54.80;;;;;;4878983;29;20059;-71
2022/05/27 12:31:53;;;;;;;4.63;2.38;;;21.70;54.80;;;;;;4896224;29;20024;-71
2022/05/27 12:34:28;;;;;;;5.53;2.50;;;21.70;54.80;;;;;;4896387;29;20053;-71
2022/05/27 12:37:00;;;;;;;4.80;2.63;;;21.70;54.80;;;;;;4894883;29;20088;-71
2022/05/27 12:39:34;;;;;;;3.30;2.08;;;21.70;54.80;;;;;;4879536;29;20084;-71
2022/05/27 12:42:12;;;;;;;3.85;2.05;;;21.70;54.70;;;;;;4895137;29;20074;-71
2022/05/27 12:44:40;;;;;;;3.33;2.38;;;21.70;54.70;;;;;;4896155;29;20116;-71
2022/05/27 12:47:17;;;;;;;4.57;2.22;;;21.70;54.70;;;;;;4894855;29;20065;-71
2022/05/27 12:49:46;;;;;;;3.92;2.17;;;21.70;54.70;;;;;;4894774;29;20036;-71
2022/05/27 12:52:30;;;;;;;3.55;2.30;;;21.70;54.70;;;;;;4895417;29;20111;-71
2022/05/27 12:54:56;;;;;;;3.97;2.40;;;21.70;54.70;;;;;;4898875;29;20032;-71
2022/05/27 13:03:33;;;;;;;5.50;2.60;;;21.70;54.70;;;;;;4899855;29;20104;-71
2022/05/27 13:06:19;;;;;;;4.90;2.38;;;21.70;54.80;;;;;;4899880;29;20078;-71
2022/05/27 13:09:29;;;;;;;4.55;2.25;;;21.70;54.70;;;;;;4899529;29;20319;-71
2022/05/27 13:11:55;;;;;;;3.97;2.40;;;21.70;54.60;;;;;;4859841;29;20045;-71
2022/05/27 13:14:54;;;;;;;4.70;2.47;;;21.70;54.60;;;;;;4844701;29;20046;-71
2022/05/27 13:17:50;;;;;;;5.25;2.60;;;21.70;55.30;;;;;;4887037;29;20052;-71
2022/05/27 13:20:16;;;;;;;3.45;2.30;;;21.60;54.50;;;;;;4881658;29;20510;-71
2022/05/27 13:23:10;;;;;;;4.55;2.72;;;21.70;54.60;;;;;;4899121;29;20073;-71
2022/05/27 13:25:42;;;;;;;5.05;2.30;;;21.70;54.60;;;;;;4897921;29;20059;-71
2022/05/27 13:28:32;;;;;;;3.92;2.35;;;21.60;54.60;;;;;;4882395;29;20039;-71
2022/05/27 13:31:00;;;;;;;5.47;2.47;;;21.70;54.70;;;;;;4898035;29;20029;-71
2022/05/27 13:33:37;;;;;;;4.93;2.70;;;21.60;54.60;;;;;;4898003;29;20025;-71
2022/05/27 13:36:17;;;;;;;5.35;2.70;;;21.70;54.70;;;;;;4899309;29;20035;-71
2022/05/27 13:38:47;;;;;;;3.85;2.47;;;21.60;54.60;;;;;;4882261;29;20048;-71
2022/05/27 13:41:17;;;;;;;4.60;2.70;;;21.70;54.70;;;;;;4882421;29;20049;-72
2022/05/27 13:43:47;;;;;;;5.18;2.65;;;21.70;55.20;;;;;;4882318;29;20553;-71
2022/05/27 13:46:47;;;;;;;4.28;2.35;;;21.70;54.60;;;;;;4898193;29;20040;-72
2022/05/27 13:49:30;;;;;;;5.05;2.33;;;21.60;54.50;;;;;;4872302;29;20056;-72
2022/05/27 13:51:57;;;;;;;4.93;2.53;;;21.70;54.60;;;;;;4898095;29;20389;-72
2022/05/27 13:54:39;;;;;;;4.00;2.45;;;21.70;54.50;;;;;;4898999;29;20037;-72
2022/05/27 13:57:09;;;;;;;4.68;2.50;;;21.70;54.50;;;;;;4898938;29;20020;-72
2022/05/27 13:59:42;;;;;;;4.68;2.80;;;21.70;54.50;;;;;;4898970;29;20040;-72
2022/05/27 14:02:18;;;;;;;4.45;2.80;;;21.70;54.40;;;;;;4897369;29;20033;-72
2022/05/27 14:04:53;;;;;;;3.85;2.28;;;21.70;54.50;;;;;;4898949;29;20036;-72